createdAt,value
2022-12-16T00:01:21.391Z,22.25
2022-12-16T00:03:52.161Z,23.50
2022-12-16T00:06:25.414Z,24.00
2022-12-16T00:08:53.848Z,24.25
2022-12-16T00:11:23.556Z,25.00
2022-12-16T00:13:52.164Z,23.00
2022-12-16T00:16:22.277Z,25.00
2022-12-16T00:18:51.757Z,24.00
2022-12-16T00:21:21.594Z,24.25
2022-12-16T00:23:50.038Z,25.75
2022-12-16T00:26:18.332Z,25.00
2022-12-16T00:28:46.657Z,25.50
2022-12-16T00:31:15.265Z,24.00
2022-12-16T00:33:43.763Z,24.75
2022-12-16T00:36:12.159Z,24.50
2022-12-16T00:38:40.532Z,25.00
2022-12-16T00:41:09.095Z,24.75
2022-12-16T00:43:37.488Z,24.50
2022-12-16T00:46:05.870Z,26.25
2022-12-16T00:48:34.200Z,25.75
2022-12-16T00:51:02.961Z,27.00
2022-12-16T00:53:31.606Z,24.75
2022-12-16T00:56:09.358Z,24.00
2022-12-16T00:58:38.218Z,23.00
2022-12-16T01:01:07.294Z,25.75
2022-12-16T01:03:36.630Z,23.50
2022-12-16T01:06:18.447Z,24.25
2022-12-16T01:08:49.268Z,23.25
2022-12-16T01:11:20.020Z,22.00
2022-12-16T01:13:52.679Z,25.00
2022-12-16T01:16:23.702Z,22.75
2022-12-16T01:18:52.119Z,25.50
2022-12-16T01:21:20.570Z,26.00
2022-12-16T01:23:49.814Z,24.00
2022-12-16T01:26:19.796Z,27.25
2022-12-16T01:29:02.844Z,27.00
2022-12-16T01:31:31.309Z,26.50
2022-12-16T01:33:59.858Z,26.00
2022-12-16T01:36:28.786Z,24.75
2022-12-16T01:38:57.089Z,25.50
2022-12-16T01:41:25.404Z,23.50
2022-12-16T01:43:53.746Z,23.00
2022-12-16T01:46:26.153Z,24.00
2022-12-16T01:49:02.147Z,24.50
2022-12-16T01:51:37.239Z,25.25
2022-12-16T01:54:11.639Z,24.50
2022-12-16T01:56:46.369Z,23.50
2022-12-16T01:59:17.801Z,23.75
2022-12-16T02:01:46.357Z,23.75
2022-12-16T02:04:14.890Z,23.00
2022-12-16T02:06:43.414Z,23.75
2022-12-16T02:09:14.157Z,23.00
2022-12-16T02:12:04.678Z,23.00
2022-12-16T02:15:01.098Z,24.25
2022-12-16T02:18:27.892Z,22.00
2022-12-16T02:21:04.981Z,22.75
2022-12-16T02:23:57.533Z,22.75
2022-12-16T02:26:57.761Z,21.25
2022-12-16T02:29:34.930Z,22.00
2022-12-16T02:32:24.213Z,20.00
2022-12-16T02:35:12.807Z,21.50
2022-12-16T02:38:02.122Z,19.25
2022-12-16T02:40:41.370Z,19.25
2022-12-16T02:43:43.004Z,21.00
2022-12-16T02:46:11.792Z,20.00
2022-12-16T02:48:40.098Z,18.75
2022-12-16T02:51:08.467Z,19.00
2022-12-16T02:53:40.577Z,18.25
2022-12-16T02:56:20.727Z,18.00
2022-12-16T02:59:03.702Z,19.25
2022-12-16T03:01:54.504Z,19.75
2022-12-16T03:05:02.248Z,17.00
2022-12-16T03:07:35.133Z,19.00
2022-12-16T03:10:07.912Z,16.25
2022-12-16T03:12:39.603Z,18.25
2022-12-16T03:15:09.448Z,18.00
2022-12-16T03:17:40.201Z,18.00
2022-12-16T03:20:27.823Z,17.50
2022-12-16T03:23:01.029Z,17.00
2022-12-16T03:25:31.179Z,16.50
2022-12-16T03:28:17.704Z,16.25
2022-12-16T03:30:58.089Z,16.00
2022-12-16T03:33:43.970Z,18.25
2022-12-16T03:36:18.675Z,15.00
2022-12-16T03:38:48.610Z,16.50
2022-12-16T03:41:20.922Z,18.00
2022-12-16T03:43:50.734Z,17.00
2022-12-16T03:46:19.582Z,13.25
2022-12-16T03:48:50.871Z,16.25
2022-12-16T03:51:20.913Z,14.50
2022-12-16T03:53:49.309Z,14.75
2022-12-16T03:56:17.671Z,17.00
2022-12-16T03:58:47.945Z,18.25
2022-12-16T04:01:16.604Z,19.00
2022-12-16T04:03:45.147Z,18.75
2022-12-16T04:06:13.504Z,20.25
2022-12-16T04:08:41.779Z,20.00
2022-12-16T04:11:28.530Z,19.00
2022-12-16T04:14:17.829Z,19.00
2022-12-16T04:17:04.672Z,19.00
2022-12-16T04:19:56.814Z,18.50
2022-12-16T04:22:50.546Z,18.00
2022-12-16T04:25:25.535Z,19.50
2022-12-16T04:27:53.849Z,18.00
2022-12-16T04:30:23.074Z,20.00
2022-12-16T04:33:24.351Z,17.50
2022-12-16T04:36:11.225Z,16.00
2022-12-16T04:38:58.299Z,18.00
2022-12-16T04:41:45.043Z,18.75
2022-12-16T04:44:32.057Z,16.25
2022-12-16T04:47:19.071Z,19.00
2022-12-16T04:50:05.779Z,14.50
2022-12-16T04:52:52.461Z,13.75
2022-12-16T04:55:39.147Z,14.50
2022-12-16T04:58:25.692Z,16.00
2022-12-16T05:01:12.571Z,16.00
2022-12-16T05:03:59.786Z,17.00
2022-12-16T05:06:46.253Z,16.25
2022-12-16T05:09:32.791Z,13.75
2022-12-16T05:12:19.464Z,13.00
2022-12-16T05:15:06.147Z,12.25
2022-12-16T05:17:53.122Z,14.50
2022-12-16T05:20:40.077Z,14.00
2022-12-16T05:23:26.553Z,12.00
2022-12-16T05:26:13.197Z,15.00
2022-12-16T05:28:59.812Z,13.50
2022-12-16T05:31:46.475Z,12.75
2022-12-16T05:34:33.069Z,11.50
2022-12-16T05:37:19.885Z,11.50
2022-12-16T05:40:06.708Z,10.50
2022-12-16T05:42:53.363Z,12.00
2022-12-16T05:45:39.952Z,12.25
2022-12-16T05:48:26.632Z,12.75
2022-12-16T05:51:13.406Z,9.50
2022-12-16T05:53:59.762Z,10.25
2022-12-16T05:56:46.466Z,12.25
2022-12-16T05:59:33.049Z,10.75
2022-12-16T06:02:20.110Z,11.00
2022-12-16T06:05:07.013Z,9.00
2022-12-16T06:07:53.614Z,13.25
2022-12-16T06:10:40.197Z,8.25
2022-12-16T06:13:26.816Z,10.00
2022-12-16T06:16:13.530Z,10.00
2022-12-16T06:18:59.823Z,11.25
2022-12-16T06:21:46.320Z,10.25
2022-12-16T06:24:32.922Z,10.50
2022-12-16T06:27:19.636Z,9.75
2022-12-16T06:30:06.433Z,12.25
2022-12-16T06:32:52.965Z,9.75
2022-12-16T06:35:39.854Z,11.25
2022-12-16T06:38:26.318Z,10.25
2022-12-16T06:41:13.011Z,10.00
2022-12-16T06:43:59.654Z,11.00
2022-12-16T06:46:46.492Z,11.00
2022-12-16T06:49:33.074Z,12.00
2022-12-16T06:52:19.839Z,11.00
2022-12-16T06:55:06.393Z,8.00
2022-12-16T06:57:53.077Z,10.50
2022-12-16T07:00:40.012Z,10.00
2022-12-16T07:03:26.516Z,10.25
2022-12-16T07:06:14.231Z,9.00
2022-12-16T07:09:00.854Z,9.75
2022-12-16T07:11:47.389Z,10.00
2022-12-16T07:14:33.987Z,9.50
2022-12-16T07:17:20.774Z,7.50
2022-12-16T07:20:07.293Z,9.50
2022-12-16T07:23:04.148Z,9.75
2022-12-16T07:25:58.236Z,10.00
2022-12-16T07:28:44.930Z,9.50
2022-12-16T07:31:45.363Z,10.00
2022-12-16T07:34:35.782Z,12.50
2022-12-16T07:37:27.231Z,9.25
2022-12-16T07:40:13.785Z,10.00
2022-12-16T07:43:06.418Z,10.50
2022-12-16T07:45:52.962Z,10.00
2022-12-16T07:48:40.426Z,7.75
2022-12-16T07:51:26.960Z,9.25
2022-12-16T07:54:13.447Z,10.25
2022-12-16T07:57:00.049Z,10.25
2022-12-16T07:59:46.925Z,9.75
2022-12-16T08:02:33.764Z,10.25
2022-12-16T08:05:20.508Z,10.75
2022-12-16T08:08:07.349Z,9.25
2022-12-16T08:10:55.343Z,11.25
2022-12-16T08:13:42.084Z,10.00
2022-12-16T08:16:28.782Z,10.75
2022-12-16T08:19:15.308Z,11.25
2022-12-16T08:22:02.117Z,10.00
2022-12-16T08:24:53.174Z,10.00
2022-12-16T08:27:40.567Z,9.75
2022-12-16T08:30:27.733Z,9.25
2022-12-16T08:33:19.307Z,9.50
2022-12-16T08:36:07.658Z,9.75
2022-12-16T08:38:55.922Z,9.75
2022-12-16T08:41:42.246Z,8.25
2022-12-16T08:44:29.057Z,7.75
2022-12-16T08:47:15.698Z,11.00
2022-12-16T08:50:02.792Z,9.00
2022-12-16T08:52:49.994Z,10.50
2022-12-16T08:55:37.086Z,8.25
2022-12-16T08:58:23.643Z,8.75
2022-12-16T09:01:10.556Z,8.00
2022-12-16T09:03:57.852Z,6.50
2022-12-16T09:06:44.512Z,7.25
2022-12-16T09:09:31.232Z,7.25
2022-12-16T09:12:18.433Z,9.50
2022-12-16T09:15:05.275Z,8.50
2022-12-16T09:17:52.945Z,7.75
2022-12-16T09:20:39.698Z,6.75
2022-12-16T09:23:27.742Z,7.25
2022-12-16T09:26:17.642Z,7.75
2022-12-16T09:29:04.641Z,7.25
2022-12-16T09:31:51.127Z,7.75
2022-12-16T09:34:58.329Z,8.25
2022-12-16T09:37:45.486Z,7.00
2022-12-16T09:40:36.147Z,7.75
2022-12-16T09:43:31.544Z,8.50
2022-12-16T09:46:47.485Z,7.00
2022-12-16T09:50:02.162Z,7.75
2022-12-16T09:52:54.863Z,6.00
2022-12-16T09:55:49.350Z,7.50
2022-12-16T09:58:39.482Z,5.25
2022-12-16T10:01:26.854Z,8.75
2022-12-16T10:04:13.599Z,7.00
2022-12-16T10:07:07.307Z,7.25
2022-12-16T10:10:35.382Z,6.25
2022-12-16T10:13:34.528Z,7.25
2022-12-16T10:16:32.791Z,7.25
2022-12-16T10:19:31.034Z,6.75
2022-12-16T10:22:22.535Z,8.25
2022-12-16T10:25:21.824Z,5.75
2022-12-16T10:28:20.087Z,7.00
2022-12-16T10:31:06.731Z,5.25
2022-12-16T10:33:53.239Z,7.50
2022-12-16T10:36:42.431Z,7.25
2022-12-16T10:39:50.546Z,7.25
2022-12-16T10:42:56.561Z,9.75
2022-12-16T10:46:03.178Z,7.25
2022-12-16T10:48:56.850Z,6.75
2022-12-16T10:51:47.697Z,6.50
2022-12-16T10:54:39.982Z,6.75
2022-12-16T10:57:57.230Z,7.50
2022-12-16T11:01:11.159Z,7.25
2022-12-16T11:03:59.857Z,7.25
2022-12-16T11:06:58.603Z,8.25
2022-12-16T11:09:53.862Z,7.00
2022-12-16T11:12:51.580Z,8.25
2022-12-16T11:15:47.760Z,7.00
2022-12-16T11:18:42.100Z,9.50
2022-12-16T11:21:33.331Z,10.00
2022-12-16T11:24:31.484Z,10.25
2022-12-16T11:27:35.620Z,10.75
2022-12-16T11:30:45.232Z,14.25
2022-12-16T11:33:48.288Z,15.25
2022-12-16T11:36:41.929Z,14.00
2022-12-16T11:39:35.847Z,14.25
2022-12-16T11:42:26.031Z,19.00
2022-12-16T11:45:17.233Z,26.75
2022-12-16T11:48:17.241Z,23.25
2022-12-16T11:51:14.411Z,20.50
2022-12-16T11:54:03.836Z,18.75
2022-12-16T11:56:54.888Z,20.00
2022-12-16T11:59:53.033Z,21.50
2022-12-16T12:02:41.945Z,21.50
2022-12-16T12:05:32.912Z,19.50
2022-12-16T12:08:43.946Z,20.50
2022-12-16T12:11:47.840Z,18.75
2022-12-16T12:14:56.362Z,20.00
2022-12-16T12:17:58.348Z,21.00
2022-12-16T12:20:48.022Z,21.25
2022-12-16T12:23:48.898Z,21.25
2022-12-16T12:26:46.539Z,19.00
2022-12-16T12:29:50.245Z,18.00
2022-12-16T12:33:06.154Z,17.50
2022-12-16T12:36:42.922Z,14.75
2022-12-16T12:39:38.863Z,17.50
2022-12-16T12:42:45.723Z,18.00
2022-12-16T12:45:35.093Z,16.75
2022-12-16T12:48:24.694Z,16.75
2022-12-16T12:51:21.461Z,18.75
2022-12-16T12:54:27.670Z,15.00
2022-12-16T12:57:19.741Z,15.00
2022-12-16T13:00:06.363Z,15.00
2022-12-16T13:03:09.330Z,16.00
2022-12-16T13:05:59.286Z,16.50
2022-12-16T13:09:03.886Z,15.25
2022-12-16T13:11:51.378Z,16.00
2022-12-16T13:14:51.420Z,18.25
2022-12-16T13:17:43.045Z,15.75
2022-12-16T13:20:56.786Z,16.75
2022-12-16T13:23:54.833Z,17.00
2022-12-16T13:26:44.681Z,16.75
2022-12-16T13:29:31.747Z,16.50
2022-12-16T13:32:27.888Z,18.50
2022-12-16T13:35:28.988Z,17.00
2022-12-16T13:38:37.059Z,17.25
2022-12-16T13:41:26.851Z,16.00
2022-12-16T13:44:18.491Z,16.75
2022-12-16T13:47:07.942Z,18.75
2022-12-16T13:49:57.616Z,18.75
2022-12-16T13:53:06.759Z,17.75
2022-12-16T13:56:00.214Z,16.75
2022-12-16T13:58:58.591Z,16.50
2022-12-16T14:02:01.228Z,14.25
2022-12-16T14:04:51.105Z,19.00
2022-12-16T14:07:40.679Z,18.00
2022-12-16T14:10:54.606Z,15.25
2022-12-16T14:14:04.512Z,18.25
2022-12-16T14:17:12.122Z,18.00
2022-12-16T14:20:17.218Z,20.00
2022-12-16T14:23:59.018Z,19.00
2022-12-16T14:26:47.338Z,20.75
2022-12-16T14:29:44.288Z,20.00
2022-12-16T14:32:47.806Z,20.00
2022-12-16T14:35:45.712Z,19.00
2022-12-16T14:38:43.508Z,20.50
2022-12-16T14:41:50.378Z,19.00
2022-12-16T14:44:40.839Z,21.25
2022-12-16T14:47:39.617Z,20.75
2022-12-16T14:50:47.324Z,19.25
2022-12-16T14:53:42.666Z,18.50
2022-12-16T14:56:44.717Z,20.50
2022-12-16T14:59:36.629Z,20.00
2022-12-16T15:02:46.482Z,20.50
2022-12-16T15:05:33.966Z,19.00
2022-12-16T15:08:21.561Z,21.25
2022-12-16T15:11:08.574Z,19.25
2022-12-16T15:14:00.335Z,19.25
2022-12-16T15:16:57.207Z,20.25
2022-12-16T15:19:44.930Z,19.00
2022-12-16T15:22:36.042Z,19.50
2022-12-16T15:25:24.258Z,21.00
2022-12-16T15:28:21.111Z,21.25
2022-12-16T15:31:08.185Z,21.00
2022-12-16T15:33:58.083Z,21.25
2022-12-16T15:36:54.255Z,22.00
2022-12-16T15:39:40.629Z,21.00
2022-12-16T15:42:40.030Z,22.00
2022-12-16T15:45:38.234Z,21.75
2022-12-16T15:48:33.784Z,20.25
2022-12-16T15:51:20.789Z,19.75
2022-12-16T15:54:22.139Z,21.25
2022-12-16T15:57:09.357Z,20.75
2022-12-16T16:00:12.177Z,22.00
2022-12-16T16:03:08.755Z,21.50
2022-12-16T16:05:56.629Z,22.00
2022-12-16T16:08:43.215Z,20.50
2022-12-16T16:11:29.941Z,20.00
2022-12-16T16:14:16.275Z,21.00
2022-12-16T16:17:03.079Z,20.50
2022-12-16T16:19:49.741Z,19.50
2022-12-16T16:22:37.857Z,21.00
2022-12-16T16:25:25.195Z,20.00
2022-12-16T16:28:31.846Z,22.00
2022-12-16T16:31:18.679Z,21.00
2022-12-16T16:34:05.534Z,21.00
2022-12-16T16:36:52.351Z,20.75
2022-12-16T16:39:39.049Z,21.00
2022-12-16T16:42:25.690Z,21.50
2022-12-16T16:45:12.174Z,21.50
2022-12-16T16:47:58.839Z,21.25
2022-12-16T16:50:45.492Z,20.50
2022-12-16T16:53:35.939Z,21.25
2022-12-16T16:56:23.482Z,21.00
2022-12-16T16:59:10.206Z,21.75
2022-12-16T17:01:56.728Z,20.50
2022-12-16T17:04:43.698Z,21.00
2022-12-16T17:07:30.290Z,21.25
2022-12-16T17:10:16.891Z,19.50
2022-12-16T17:13:04.884Z,20.25
2022-12-16T17:15:55.737Z,20.25
2022-12-16T17:18:46.700Z,19.50
2022-12-16T17:21:35.473Z,19.25
2022-12-16T17:24:22.039Z,20.25
2022-12-16T17:27:09.192Z,19.00
2022-12-16T17:29:55.616Z,18.25
2022-12-16T17:32:42.141Z,19.25
2022-12-16T17:35:31.517Z,18.75
2022-12-16T17:38:17.911Z,19.50
2022-12-16T17:41:11.262Z,18.00
2022-12-16T17:43:57.827Z,18.25
2022-12-16T17:46:44.750Z,18.25
2022-12-16T17:49:31.357Z,17.50
2022-12-16T17:52:17.944Z,18.75
2022-12-16T17:55:04.465Z,17.00
2022-12-16T17:57:50.940Z,14.75
2022-12-16T18:00:37.565Z,15.75
2022-12-16T18:03:24.552Z,11.00
2022-12-16T18:06:16.958Z,13.00
2022-12-16T18:09:03.555Z,12.00
2022-12-16T18:11:50.131Z,11.00
2022-12-16T18:14:36.993Z,9.00
2022-12-16T18:17:23.529Z,10.75
2022-12-16T18:20:10.301Z,7.00
2022-12-16T18:22:56.987Z,10.00
2022-12-16T18:25:43.503Z,8.00
2022-12-16T18:28:30.077Z,9.00
2022-12-16T18:31:33.859Z,8.75
2022-12-16T18:34:20.285Z,6.50
2022-12-16T18:37:06.722Z,8.00
2022-12-16T18:39:53.305Z,8.00
2022-12-16T18:42:39.761Z,7.75
2022-12-16T18:45:26.605Z,8.00
2022-12-16T18:48:13.203Z,7.50
2022-12-16T18:50:59.674Z,10.25
2022-12-16T18:53:46.269Z,7.50
2022-12-16T18:56:33.016Z,7.00
2022-12-16T18:59:19.570Z,9.75
2022-12-16T19:02:06.272Z,8.00
2022-12-16T19:04:52.848Z,8.50
2022-12-16T19:07:39.592Z,10.50
2022-12-16T19:10:26.627Z,7.50
2022-12-16T19:13:19.167Z,8.00
2022-12-16T19:16:16.555Z,10.00
2022-12-16T19:19:03.247Z,7.50
2022-12-16T19:21:52.073Z,8.25
2022-12-16T19:24:43.387Z,10.50
2022-12-16T19:27:30.066Z,11.75
2022-12-16T19:30:16.517Z,10.75
2022-12-16T19:33:06.980Z,10.00
2022-12-16T19:35:53.664Z,10.00
2022-12-16T19:38:40.301Z,12.25
2022-12-16T19:41:34.751Z,11.00
2022-12-16T19:44:22.033Z,10.75
2022-12-16T19:47:28.561Z,13.75
2022-12-16T19:50:15.091Z,11.25
2022-12-16T19:53:01.729Z,12.00
2022-12-16T19:55:48.623Z,11.00
2022-12-16T19:58:39.364Z,11.25
2022-12-16T20:01:28.144Z,10.25
2022-12-16T20:04:15.163Z,13.00
2022-12-16T20:07:02.018Z,12.25
2022-12-16T20:09:48.818Z,13.00
2022-12-16T20:12:35.766Z,13.50
2022-12-16T20:15:22.515Z,13.50
2022-12-16T20:18:09.572Z,13.50
2022-12-16T20:20:56.248Z,12.00
2022-12-16T20:23:42.905Z,14.25
2022-12-16T20:26:29.368Z,14.50
2022-12-16T20:29:16.056Z,13.25
2022-12-16T20:32:02.658Z,14.25
2022-12-16T20:34:49.244Z,13.25
2022-12-16T20:37:36.304Z,15.00
2022-12-16T20:40:23.792Z,15.25
2022-12-16T20:43:10.325Z,13.00
2022-12-16T20:45:56.942Z,12.25
2022-12-16T20:48:43.595Z,12.00
2022-12-16T20:51:30.098Z,12.50
2022-12-16T20:54:16.798Z,12.00
2022-12-16T20:57:05.855Z,13.00
2022-12-16T20:59:53.708Z,14.00
2022-12-16T21:02:42.720Z,11.50
2022-12-16T21:05:49.198Z,13.00
2022-12-16T21:08:36.120Z,14.75
2022-12-16T21:11:22.477Z,10.00
2022-12-16T21:14:09.261Z,11.50
2022-12-16T21:16:56.015Z,10.00
2022-12-16T21:19:42.621Z,11.75
2022-12-16T21:22:29.087Z,12.00
2022-12-16T21:25:19.756Z,11.50
2022-12-16T21:28:09.620Z,11.00
2022-12-16T21:30:56.447Z,8.50
2022-12-16T21:33:43.120Z,11.25
2022-12-16T21:36:29.886Z,12.50
2022-12-16T21:39:16.399Z,11.50
2022-12-16T21:42:03.036Z,11.25
2022-12-16T21:44:49.465Z,10.00
2022-12-16T21:47:36.306Z,9.50
2022-12-16T21:50:23.349Z,9.25
2022-12-16T21:53:09.918Z,11.75
2022-12-16T21:55:56.736Z,10.75
2022-12-16T21:58:43.295Z,12.00
2022-12-16T22:01:29.940Z,10.75
2022-12-16T22:04:16.861Z,12.00
2022-12-16T22:07:03.605Z,11.00
2022-12-16T22:09:50.329Z,11.00
2022-12-16T22:12:37.074Z,12.25
2022-12-16T22:15:24.009Z,12.50
2022-12-16T22:18:10.493Z,12.00
2022-12-16T22:20:57.227Z,10.00
2022-12-16T22:23:52.618Z,11.50
2022-12-16T22:26:42.791Z,9.50
2022-12-16T22:29:29.745Z,10.50
2022-12-16T22:32:16.450Z,8.75
2022-12-16T22:35:03.275Z,10.00
2022-12-16T22:37:50.118Z,7.75
2022-12-16T22:40:36.602Z,9.25
2022-12-16T22:43:23.896Z,10.75
2022-12-16T22:46:23.276Z,9.00
2022-12-16T22:49:10.031Z,8.00
2022-12-16T22:52:10.661Z,11.00
2022-12-16T22:54:57.482Z,9.25
2022-12-16T22:57:46.358Z,6.50
2022-12-16T23:00:34.637Z,7.50
2022-12-16T23:03:21.625Z,9.00
2022-12-16T23:06:08.148Z,8.00
2022-12-16T23:08:54.732Z,8.00
2022-12-16T23:11:50.922Z,8.00
2022-12-16T23:14:42.731Z,7.25
2022-12-16T23:17:30.752Z,8.00
2022-12-16T23:20:17.985Z,7.75
2022-12-16T23:23:04.948Z,7.50
2022-12-16T23:25:51.411Z,8.25
2022-12-16T23:28:39.385Z,8.00
2022-12-16T23:31:25.929Z,7.50
2022-12-16T23:34:12.484Z,8.00
2022-12-16T23:36:59.071Z,8.25
2022-12-16T23:39:45.614Z,7.00
2022-12-16T23:42:32.209Z,8.00
2022-12-16T23:45:18.594Z,7.75
2022-12-16T23:48:05.328Z,9.00
2022-12-16T23:50:51.816Z,8.50
2022-12-16T23:53:38.700Z,9.00
2022-12-16T23:56:25.941Z,7.25
2022-12-16T23:59:12.379Z,9.00
